sensor_id;sensor_type;location;lat;lon;timestamp;P1;durP1;ratioP1;P2;durP2;ratioP2
63943;SDS011;50121;51.218;7.664;2023-10-19T00:01:27;6.65;;;6.18;;
63943;SDS011;50121;51.218;7.664;2023-10-19T00:03:55;5.97;;;5.57;;
63943;SDS011;50121;51.218;7.664;2023-10-19T00:06:23;5.75;;;5.35;;
63943;SDS011;50121;51.218;7.664;2023-10-19T00:08:52;6.25;;;5.70;;
63943;SDS011;50121;51.218;7.664;2023-10-19T00:11:37;6.53;;;5.95;;
63943;SDS011;50121;51.218;7.664;2023-10-19T00:14:08;6.63;;;6.03;;
63943;SDS011;50121;51.218;7.664;2023-10-19T00:16:43;7.53;;;6.82;;
63943;SDS011;50121;51.218;7.664;2023-10-19T00:19:18;7.20;;;6.50;;
63943;SDS011;50121;51.218;7.664;2023-10-19T00:21:47;7.30;;;6.70;;
63943;SDS011;50121;51.218;7.664;2023-10-19T00:26:50;7.55;;;6.85;;
63943;SDS011;50121;51.218;7.664;2023-10-19T00:29:23;7.75;;;7.05;;
63943;SDS011;50121;51.218;7.664;2023-10-19T00:32:02;7.97;;;7.18;;
63943;SDS011;50121;51.218;7.664;2023-10-19T00:34:32;7.65;;;6.95;;
63943;SDS011;50121;51.218;7.664;2023-10-19T00:37:15;7.50;;;6.80;;
63943;SDS011;50121;51.218;7.664;2023-10-19T00:39:48;8.63;;;7.85;;
63943;SDS011;50121;51.218;7.664;2023-10-19T00:42:23;7.70;;;6.78;;
63943;SDS011;50121;51.218;7.664;2023-10-19T00:44:59;8.60;;;7.80;;
63943;SDS011;50121;51.218;7.664;2023-10-19T00:47:45;9.15;;;6.70;;
63943;SDS011;50121;51.218;7.664;2023-10-19T00:50:20;9.15;;;6.93;;
63943;SDS011;50121;51.218;7.664;2023-10-19T00:52:55;8.02;;;7.22;;
63943;SDS011;50121;51.218;7.664;2023-10-19T00:55:27;8.55;;;7.07;;
63943;SDS011;50121;51.218;7.664;2023-10-19T00:57:56;8.55;;;7.05;;
63943;SDS011;50121;51.218;7.664;2023-10-19T01:00:29;8.57;;;7.68;;
63943;SDS011;50121;51.218;7.664;2023-10-19T01:03:17;8.38;;;6.90;;
63943;SDS011;50121;51.218;7.664;2023-10-19T01:05:51;7.80;;;7.00;;
63943;SDS011;50121;51.218;7.664;2023-10-19T01:08:27;7.35;;;6.65;;
63943;SDS011;50121;51.218;7.664;2023-10-19T01:11:12;8.05;;;7.25;;
63943;SDS011;50121;51.218;7.664;2023-10-19T01:14:17;7.85;;;6.75;;
63943;SDS011;50121;51.218;7.664;2023-10-19T01:17:05;8.00;;;6.38;;
63943;SDS011;50121;51.218;7.664;2023-10-19T01:19:53;7.80;;;6.55;;
63943;SDS011;50121;51.218;7.664;2023-10-19T01:22:24;9.13;;;7.05;;
63943;SDS011;50121;51.218;7.664;2023-10-19T01:25:04;8.55;;;7.10;;
63943;SDS011;50121;51.218;7.664;2023-10-19T01:27:42;9.48;;;7.38;;
63943;SDS011;50121;51.218;7.664;2023-10-19T01:30:12;9.55;;;7.50;;
63943;SDS011;50121;51.218;7.664;2023-10-19T01:32:57;8.70;;;7.72;;
63943;SDS011;50121;51.218;7.664;2023-10-19T01:35:30;10.15;;;8.02;;
63943;SDS011;50121;51.218;7.664;2023-10-19T01:38:24;8.32;;;7.45;;
63943;SDS011;50121;51.218;7.664;2023-10-19T01:40:56;9.77;;;8.23;;
63943;SDS011;50121;51.218;7.664;2023-10-19T01:43:30;8.65;;;7.65;;
63943;SDS011;50121;51.218;7.664;2023-10-19T01:46:05;9.70;;;8.27;;
63943;SDS011;50121;51.218;7.664;2023-10-19T01:48:46;9.13;;;7.97;;
63943;SDS011;50121;51.218;7.664;2023-10-19T01:51:18;11.18;;;8.27;;
63943;SDS011;50121;51.218;7.664;2023-10-19T01:53:51;9.35;;;8.00;;
63943;SDS011;50121;51.218;7.664;2023-10-19T01:56:24;9.40;;;8.13;;
63943;SDS011;50121;51.218;7.664;2023-10-19T01:58:58;9.82;;;8.35;;
63943;SDS011;50121;51.218;7.664;2023-10-19T02:01:37;9.43;;;7.90;;
63943;SDS011;50121;51.218;7.664;2023-10-19T02:04:13;9.45;;;8.15;;
63943;SDS011;50121;51.218;7.664;2023-10-19T02:06:57;11.65;;;8.50;;
63943;SDS011;50121;51.218;7.664;2023-10-19T02:09:36;9.20;;;8.23;;
63943;SDS011;50121;51.218;7.664;2023-10-19T02:12:08;10.75;;;8.60;;
63943;SDS011;50121;51.218;7.664;2023-10-19T02:14:40;9.35;;;8.40;;
63943;SDS011;50121;51.218;7.664;2023-10-19T02:17:08;11.07;;;8.98;;
63943;SDS011;50121;51.218;7.664;2023-10-19T02:19:45;10.65;;;9.20;;
63943;SDS011;50121;51.218;7.664;2023-10-19T02:22:14;10.27;;;8.55;;
63943;SDS011;50121;51.218;7.664;2023-10-19T02:24:47;10.02;;;8.25;;
63943;SDS011;50121;51.218;7.664;2023-10-19T02:27:17;9.90;;;8.13;;
63943;SDS011;50121;51.218;7.664;2023-10-19T02:30:03;10.07;;;8.45;;
63943;SDS011;50121;51.218;7.664;2023-10-19T02:32:41;11.55;;;8.35;;
63943;SDS011;50121;51.218;7.664;2023-10-19T02:35:13;9.18;;;8.15;;
63943;SDS011;50121;51.218;7.664;2023-10-19T02:37:46;9.82;;;8.32;;
63943;SDS011;50121;51.218;7.664;2023-10-19T02:40:21;9.77;;;8.55;;
63943;SDS011;50121;51.218;7.664;2023-10-19T02:42:54;9.98;;;8.57;;
63943;SDS011;50121;51.218;7.664;2023-10-19T02:45:27;9.93;;;8.45;;
63943;SDS011;50121;51.218;7.664;2023-10-19T02:48:15;10.43;;;8.65;;
63943;SDS011;50121;51.218;7.664;2023-10-19T02:50:57;10.25;;;9.15;;
63943;SDS011;50121;51.218;7.664;2023-10-19T02:53:52;11.23;;;8.25;;
63943;SDS011;50121;51.218;7.664;2023-10-19T02:56:27;10.38;;;8.48;;
63943;SDS011;50121;51.218;7.664;2023-10-19T02:59:16;9.98;;;8.25;;
63943;SDS011;50121;51.218;7.664;2023-10-19T03:01:51;12.30;;;8.57;;
63943;SDS011;50121;51.218;7.664;2023-10-19T03:04:20;9.60;;;8.20;;
63943;SDS011;50121;51.218;7.664;2023-10-19T03:06:49;14.30;;;8.60;;
63943;SDS011;50121;51.218;7.664;2023-10-19T03:09:28;11.10;;;8.10;;
63943;SDS011;50121;51.218;7.664;2023-10-19T03:12:09;11.93;;;8.05;;
63943;SDS011;50121;51.218;7.664;2023-10-19T03:14:38;9.30;;;7.00;;
63943;SDS011;50121;51.218;7.664;2023-10-19T03:17:08;9.52;;;7.88;;
63943;SDS011;50121;51.218;7.664;2023-10-19T03:22:20;10.35;;;7.95;;
63943;SDS011;50121;51.218;7.664;2023-10-19T03:25:08;8.90;;;7.03;;
63943;SDS011;50121;51.218;7.664;2023-10-19T03:28:12;8.25;;;7.18;;
63943;SDS011;50121;51.218;7.664;2023-10-19T03:30:43;11.90;;;7.65;;
63943;SDS011;50121;51.218;7.664;2023-10-19T03:33:14;9.98;;;7.60;;
63943;SDS011;50121;51.218;7.664;2023-10-19T03:35:51;9.23;;;7.45;;
63943;SDS011;50121;51.218;7.664;2023-10-19T03:38:28;8.90;;;7.50;;
63943;SDS011;50121;51.218;7.664;2023-10-19T03:41:07;10.02;;;7.28;;
63943;SDS011;50121;51.218;7.664;2023-10-19T03:43:53;11.60;;;7.60;;
63943;SDS011;50121;51.218;7.664;2023-10-19T03:46:28;9.57;;;7.07;;
63943;SDS011;50121;51.218;7.664;2023-10-19T03:49:06;10.55;;;7.18;;
63943;SDS011;50121;51.218;7.664;2023-10-19T03:52:00;12.10;;;7.38;;
63943;SDS011;50121;51.218;7.664;2023-10-19T03:54:56;9.40;;;7.47;;
63943;SDS011;50121;51.218;7.664;2023-10-19T03:57:38;9.18;;;7.32;;
63943;SDS011;50121;51.218;7.664;2023-10-19T04:00:13;11.30;;;7.03;;
63943;SDS011;50121;51.218;7.664;2023-10-19T04:02:47;9.23;;;7.05;;
63943;SDS011;50121;51.218;7.664;2023-10-19T04:05:22;8.30;;;6.40;;
63943;SDS011;50121;51.218;7.664;2023-10-19T04:07:53;8.50;;;6.40;;
63943;SDS011;50121;51.218;7.664;2023-10-19T04:10:41;8.27;;;6.60;;
63943;SDS011;50121;51.218;7.664;2023-10-19T04:13:42;7.85;;;6.63;;
63943;SDS011;50121;51.218;7.664;2023-10-19T04:16:19;8.00;;;6.38;;
63943;SDS011;50121;51.218;7.664;2023-10-19T04:18:59;15.23;;;9.73;;
63943;SDS011;50121;51.218;7.664;2023-10-19T04:21:53;9.10;;;6.88;;
63943;SDS011;50121;51.218;7.664;2023-10-19T04:24:42;10.48;;;6.75;;
63943;SDS011;50121;51.218;7.664;2023-10-19T04:27:29;10.65;;;6.43;;
63943;SDS011;50121;51.218;7.664;2023-10-19T04:30:18;9.13;;;6.38;;
63943;SDS011;50121;51.218;7.664;2023-10-19T04:33:09;10.18;;;7.80;;
63943;SDS011;50121;51.218;7.664;2023-10-19T04:35:57;12.25;;;7.75;;
63943;SDS011;50121;51.218;7.664;2023-10-19T04:38:27;10.23;;;6.50;;
63943;SDS011;50121;51.218;7.664;2023-10-19T04:41:07;10.82;;;6.22;;
63943;SDS011;50121;51.218;7.664;2023-10-19T04:43:37;9.38;;;6.80;;
63943;SDS011;50121;51.218;7.664;2023-10-19T04:46:13;10.95;;;5.97;;
63943;SDS011;50121;51.218;7.664;2023-10-19T04:48:44;11.38;;;5.93;;
63943;SDS011;50121;51.218;7.664;2023-10-19T04:51:12;8.65;;;6.15;;
63943;SDS011;50121;51.218;7.664;2023-10-19T04:53:40;7.38;;;6.25;;
63943;SDS011;50121;51.218;7.664;2023-10-19T04:56:09;8.75;;;6.22;;
63943;SDS011;50121;51.218;7.664;2023-10-19T04:58:48;8.63;;;6.18;;
63943;SDS011;50121;51.218;7.664;2023-10-19T05:01:16;13.40;;;6.13;;
63943;SDS011;50121;51.218;7.664;2023-10-19T05:03:44;15.88;;;10.57;;
63943;SDS011;50121;51.218;7.664;2023-10-19T05:06:12;16.65;;;11.40;;
63943;SDS011;50121;51.218;7.664;2023-10-19T05:08:41;7.35;;;5.85;;
63943;SDS011;50121;51.218;7.664;2023-10-19T05:11:09;6.88;;;5.70;;
63943;SDS011;50121;51.218;7.664;2023-10-19T05:13:38;7.53;;;5.57;;
63943;SDS011;50121;51.218;7.664;2023-10-19T05:16:06;8.65;;;5.82;;
63943;SDS011;50121;51.218;7.664;2023-10-19T05:18:34;9.02;;;6.22;;
63943;SDS011;50121;51.218;7.664;2023-10-19T05:21:02;8.20;;;5.63;;
63943;SDS011;50121;51.218;7.664;2023-10-19T05:23:31;9.68;;;5.82;;
63943;SDS011;50121;51.218;7.664;2023-10-19T05:26:00;9.90;;;6.15;;
63943;SDS011;50121;51.218;7.664;2023-10-19T05:28:29;12.25;;;6.15;;
63943;SDS011;50121;51.218;7.664;2023-10-19T05:30:57;8.93;;;6.18;;
63943;SDS011;50121;51.218;7.664;2023-10-19T05:33:29;8.45;;;6.22;;
63943;SDS011;50121;51.218;7.664;2023-10-19T05:35:57;8.57;;;6.00;;
63943;SDS011;50121;51.218;7.664;2023-10-19T05:38:26;8.27;;;6.18;;
63943;SDS011;50121;51.218;7.664;2023-10-19T05:40:56;9.05;;;6.43;;
63943;SDS011;50121;51.218;7.664;2023-10-19T05:43:28;9.48;;;6.55;;
63943;SDS011;50121;51.218;7.664;2023-10-19T05:46:06;8.20;;;6.10;;
63943;SDS011;50121;51.218;7.664;2023-10-19T05:48:34;7.20;;;6.18;;
63943;SDS011;50121;51.218;7.664;2023-10-19T05:51:01;9.13;;;6.18;;
63943;SDS011;50121;51.218;7.664;2023-10-19T05:53:34;11.55;;;6.50;;
63943;SDS011;50121;51.218;7.664;2023-10-19T05:56:02;7.47;;;6.32;;
63943;SDS011;50121;51.218;7.664;2023-10-19T05:58:31;14.18;;;8.38;;
63943;SDS011;50121;51.218;7.664;2023-10-19T06:00:59;10.38;;;7.00;;
63943;SDS011;50121;51.218;7.664;2023-10-19T06:03:28;8.63;;;6.32;;
63943;SDS011;50121;51.218;7.664;2023-10-19T06:05:57;9.30;;;6.78;;
63943;SDS011;50121;51.218;7.664;2023-10-19T06:08:25;7.80;;;7.00;;
63943;SDS011;50121;51.218;7.664;2023-10-19T06:10:54;8.85;;;6.57;;
63943;SDS011;50121;51.218;7.664;2023-10-19T06:13:22;7.65;;;6.07;;
63943;SDS011;50121;51.218;7.664;2023-10-19T06:15:52;7.53;;;6.20;;
63943;SDS011;50121;51.218;7.664;2023-10-19T06:18:20;9.00;;;6.63;;
63943;SDS011;50121;51.218;7.664;2023-10-19T06:20:48;10.00;;;6.35;;
63943;SDS011;50121;51.218;7.664;2023-10-19T06:23:18;8.13;;;5.80;;
63943;SDS011;50121;51.218;7.664;2023-10-19T06:25:47;12.93;;;6.43;;
63943;SDS011;50121;51.218;7.664;2023-10-19T06:28:18;8.40;;;6.20;;
63943;SDS011;50121;51.218;7.664;2023-10-19T06:30:47;11.43;;;6.55;;
63943;SDS011;50121;51.218;7.664;2023-10-19T06:33:16;11.20;;;6.68;;
63943;SDS011;50121;51.218;7.664;2023-10-19T06:35:45;9.75;;;6.13;;
63943;SDS011;50121;51.218;7.664;2023-10-19T06:38:13;8.30;;;6.53;;
63943;SDS011;50121;51.218;7.664;2023-10-19T06:40:42;8.40;;;5.45;;
63943;SDS011;50121;51.218;7.664;2023-10-19T06:43:10;8.20;;;5.78;;
63943;SDS011;50121;51.218;7.664;2023-10-19T06:45:38;8.07;;;5.40;;
63943;SDS011;50121;51.218;7.664;2023-10-19T06:48:08;7.10;;;5.50;;
63943;SDS011;50121;51.218;7.664;2023-10-19T06:50:40;9.65;;;5.85;;
63943;SDS011;50121;51.218;7.664;2023-10-19T06:53:09;7.85;;;5.70;;
63943;SDS011;50121;51.218;7.664;2023-10-19T06:55:39;7.63;;;5.75;;
63943;SDS011;50121;51.218;7.664;2023-10-19T06:58:07;8.15;;;6.20;;
63943;SDS011;50121;51.218;7.664;2023-10-19T07:00:37;8.07;;;5.60;;
63943;SDS011;50121;51.218;7.664;2023-10-19T07:03:12;9.63;;;6.25;;
63943;SDS011;50121;51.218;7.664;2023-10-19T07:05:41;8.13;;;6.20;;
63943;SDS011;50121;51.218;7.664;2023-10-19T07:08:10;10.38;;;6.28;;
63943;SDS011;50121;51.218;7.664;2023-10-19T07:10:38;10.52;;;6.65;;
63943;SDS011;50121;51.218;7.664;2023-10-19T07:13:08;10.82;;;6.53;;
63943;SDS011;50121;51.218;7.664;2023-10-19T07:15:36;10.25;;;7.15;;
63943;SDS011;50121;51.218;7.664;2023-10-19T07:18:09;10.77;;;6.93;;
63943;SDS011;50121;51.218;7.664;2023-10-19T07:20:40;10.05;;;6.30;;
63943;SDS011;50121;51.218;7.664;2023-10-19T07:23:09;9.32;;;6.75;;
63943;SDS011;50121;51.218;7.664;2023-10-19T07:25:38;10.90;;;7.05;;
63943;SDS011;50121;51.218;7.664;2023-10-19T07:28:20;10.80;;;6.93;;
63943;SDS011;50121;51.218;7.664;2023-10-19T07:30:57;8.90;;;6.43;;
63943;SDS011;50121;51.218;7.664;2023-10-19T07:33:27;11.02;;;6.88;;
63943;SDS011;50121;51.218;7.664;2023-10-19T07:35:55;10.02;;;7.35;;
63943;SDS011;50121;51.218;7.664;2023-10-19T07:38:27;10.88;;;7.18;;
63943;SDS011;50121;51.218;7.664;2023-10-19T07:40:58;12.10;;;7.80;;
63943;SDS011;50121;51.218;7.664;2023-10-19T07:43:26;10.82;;;7.32;;
63943;SDS011;50121;51.218;7.664;2023-10-19T07:46:09;9.60;;;7.18;;
63943;SDS011;50121;51.218;7.664;2023-10-19T07:48:43;10.70;;;6.70;;
63943;SDS011;50121;51.218;7.664;2023-10-19T07:51:13;9.10;;;6.43;;
63943;SDS011;50121;51.218;7.664;2023-10-19T07:53:42;9.13;;;6.72;;
63943;SDS011;50121;51.218;7.664;2023-10-19T07:56:12;10.73;;;7.00;;
63943;SDS011;50121;51.218;7.664;2023-10-19T07:58:40;7.93;;;6.70;;
63943;SDS011;50121;51.218;7.664;2023-10-19T08:01:09;9.25;;;6.07;;
63943;SDS011;50121;51.218;7.664;2023-10-19T08:03:38;11.30;;;6.22;;
63943;SDS011;50121;51.218;7.664;2023-10-19T08:06:08;7.47;;;5.88;;
63943;SDS011;50121;51.218;7.664;2023-10-19T08:08:37;9.32;;;5.93;;
63943;SDS011;50121;51.218;7.664;2023-10-19T08:11:11;10.95;;;6.38;;
63943;SDS011;50121;51.218;7.664;2023-10-19T08:13:52;9.13;;;5.93;;
63943;SDS011;50121;51.218;7.664;2023-10-19T08:16:27;8.70;;;6.00;;
63943;SDS011;50121;51.218;7.664;2023-10-19T08:19:03;8.80;;;6.03;;
63943;SDS011;50121;51.218;7.664;2023-10-19T08:21:32;8.68;;;5.55;;
63943;SDS011;50121;51.218;7.664;2023-10-19T08:24:01;6.93;;;5.43;;
63943;SDS011;50121;51.218;7.664;2023-10-19T08:26:33;8.07;;;5.90;;
63943;SDS011;50121;51.218;7.664;2023-10-19T08:29:03;8.10;;;5.80;;
63943;SDS011;50121;51.218;7.664;2023-10-19T08:31:40;8.57;;;5.18;;
63943;SDS011;50121;51.218;7.664;2023-10-19T08:34:08;6.93;;;5.50;;
63943;SDS011;50121;51.218;7.664;2023-10-19T08:36:40;9.68;;;5.50;;
63943;SDS011;50121;51.218;7.664;2023-10-19T08:39:09;8.48;;;5.28;;
63943;SDS011;50121;51.218;7.664;2023-10-19T08:41:40;9.52;;;5.25;;
63943;SDS011;50121;51.218;7.664;2023-10-19T08:44:10;7.43;;;4.70;;
63943;SDS011;50121;51.218;7.664;2023-10-19T08:46:39;7.45;;;4.63;;
63943;SDS011;50121;51.218;7.664;2023-10-19T08:49:10;9.73;;;4.63;;
63943;SDS011;50121;51.218;7.664;2023-10-19T08:51:43;7.75;;;4.65;;
63943;SDS011;50121;51.218;7.664;2023-10-19T08:54:15;8.40;;;4.40;;
63943;SDS011;50121;51.218;7.664;2023-10-19T08:56:43;10.57;;;4.70;;
63943;SDS011;50121;51.218;7.664;2023-10-19T08:59:11;9.70;;;6.30;;
63943;SDS011;50121;51.218;7.664;2023-10-19T09:01:41;12.38;;;6.82;;
63943;SDS011;50121;51.218;7.664;2023-10-19T09:04:11;7.43;;;4.38;;
63943;SDS011;50121;51.218;7.664;2023-10-19T09:06:40;4.95;;;4.18;;
63943;SDS011;50121;51.218;7.664;2023-10-19T09:11:37;6.25;;;4.13;;
63943;SDS011;50121;51.218;7.664;2023-10-19T09:14:05;8.40;;;4.22;;
63943;SDS011;50121;51.218;7.664;2023-10-19T09:16:33;7.93;;;4.10;;
63943;SDS011;50121;51.218;7.664;2023-10-19T09:19:04;8.88;;;4.60;;
63943;SDS011;50121;51.218;7.664;2023-10-19T09:21:33;9.45;;;3.97;;
63943;SDS011;50121;51.218;7.664;2023-10-19T09:24:02;6.43;;;3.55;;
63943;SDS011;50121;51.218;7.664;2023-10-19T09:26:35;5.35;;;3.90;;
63943;SDS011;50121;51.218;7.664;2023-10-19T09:29:06;8.48;;;4.47;;
63943;SDS011;50121;51.218;7.664;2023-10-19T09:31:39;9.02;;;4.05;;
63943;SDS011;50121;51.218;7.664;2023-10-19T09:34:09;8.80;;;3.88;;
63943;SDS011;50121;51.218;7.664;2023-10-19T09:36:38;8.75;;;4.13;;
63943;SDS011;50121;51.218;7.664;2023-10-19T09:39:07;4.60;;;3.60;;
63943;SDS011;50121;51.218;7.664;2023-10-19T09:41:51;7.05;;;4.00;;
63943;SDS011;50121;51.218;7.664;2023-10-19T09:44:26;6.00;;;3.40;;
63943;SDS011;50121;51.218;7.664;2023-10-19T09:46:59;5.87;;;3.57;;
63943;SDS011;50121;51.218;7.664;2023-10-19T09:49:41;10.32;;;3.58;;
63943;SDS011;50121;51.218;7.664;2023-10-19T09:52:13;9.20;;;3.83;;
63943;SDS011;50121;51.218;7.664;2023-10-19T09:55:12;4.18;;;2.90;;
63943;SDS011;50121;51.218;7.664;2023-10-19T09:57:49;6.03;;;3.10;;
63943;SDS011;50121;51.218;7.664;2023-10-19T10:00:23;6.72;;;3.00;;
63943;SDS011;50121;51.218;7.664;2023-10-19T10:02:51;10.43;;;3.13;;
63943;SDS011;50121;51.218;7.664;2023-10-19T10:10:49;8.98;;;3.60;;
63943;SDS011;50121;51.218;7.664;2023-10-19T10:15:55;7.03;;;3.03;;
63943;SDS011;50121;51.218;7.664;2023-10-19T10:18:26;7.05;;;3.10;;
63943;SDS011;50121;51.218;7.664;2023-10-19T10:26:14;6.13;;;4.28;;
63943;SDS011;50121;51.218;7.664;2023-10-19T10:28:46;9.27;;;5.68;;
63943;SDS011;50121;51.218;7.664;2023-10-19T10:31:22;8.27;;;4.47;;
63943;SDS011;50121;51.218;7.664;2023-10-19T10:33:53;11.43;;;5.85;;
63943;SDS011;50121;51.218;7.664;2023-10-19T10:36:22;6.72;;;4.72;;
63943;SDS011;50121;51.218;7.664;2023-10-19T10:38:51;9.00;;;5.55;;
63943;SDS011;50121;51.218;7.664;2023-10-19T10:41:21;9.77;;;5.75;;
63943;SDS011;50121;51.218;7.664;2023-10-19T10:43:55;6.57;;;5.00;;
63943;SDS011;50121;51.218;7.664;2023-10-19T10:46:29;9.38;;;5.15;;
63943;SDS011;50121;51.218;7.664;2023-10-19T10:48:57;8.60;;;5.00;;
63943;SDS011;50121;51.218;7.664;2023-10-19T10:51:30;7.68;;;5.60;;
63943;SDS011;50121;51.218;7.664;2023-10-19T10:54:14;11.32;;;6.30;;
63943;SDS011;50121;51.218;7.664;2023-10-19T10:56:42;9.07;;;5.80;;
63943;SDS011;50121;51.218;7.664;2023-10-19T10:59:14;7.03;;;5.88;;
63943;SDS011;50121;51.218;7.664;2023-10-19T11:01:42;8.60;;;5.50;;
63943;SDS011;50121;51.218;7.664;2023-10-19T11:04:11;6.40;;;5.80;;
63943;SDS011;50121;51.218;7.664;2023-10-19T11:06:50;6.70;;;5.43;;
63943;SDS011;50121;51.218;7.664;2023-10-19T11:09:18;7.28;;;5.60;;
63943;SDS011;50121;51.218;7.664;2023-10-19T11:11:46;8.20;;;6.00;;
63943;SDS011;50121;51.218;7.664;2023-10-19T11:14:14;6.22;;;5.63;;
63943;SDS011;50121;51.218;7.664;2023-10-19T11:16:42;11.98;;;6.07;;
63943;SDS011;50121;51.218;7.664;2023-10-19T11:19:10;8.80;;;6.10;;
63943;SDS011;50121;51.218;7.664;2023-10-19T11:21:38;8.18;;;5.95;;
63943;SDS011;50121;51.218;7.664;2023-10-19T11:24:25;11.85;;;8.05;;
63943;SDS011;50121;51.218;7.664;2023-10-19T11:26:53;10.68;;;6.20;;
63943;SDS011;50121;51.218;7.664;2023-10-19T11:29:23;8.38;;;5.90;;
63943;SDS011;50121;51.218;7.664;2023-10-19T11:31:59;7.05;;;5.50;;
63943;SDS011;50121;51.218;7.664;2023-10-19T11:34:28;7.82;;;5.80;;
63943;SDS011;50121;51.218;7.664;2023-10-19T11:36:57;7.63;;;5.88;;
63943;SDS011;50121;51.218;7.664;2023-10-19T11:39:30;7.20;;;6.50;;
63943;SDS011;50121;51.218;7.664;2023-10-19T11:42:00;6.45;;;5.80;;
63943;SDS011;50121;51.218;7.664;2023-10-19T11:44:37;7.35;;;6.30;;
63943;SDS011;50121;51.218;7.664;2023-10-19T11:47:07;7.45;;;6.75;;
63943;SDS011;50121;51.218;7.664;2023-10-19T11:49:36;8.25;;;7.10;;
63943;SDS011;50121;51.218;7.664;2023-10-19T11:52:05;11.60;;;7.85;;
63943;SDS011;50121;51.218;7.664;2023-10-19T11:54:34;11.77;;;6.57;;
63943;SDS011;50121;51.218;7.664;2023-10-19T11:57:19;7.80;;;6.70;;
63943;SDS011;50121;51.218;7.664;2023-10-19T11:59:48;9.00;;;7.25;;
63943;SDS011;50121;51.218;7.664;2023-10-19T12:02:21;9.93;;;7.07;;
63943;SDS011;50121;51.218;7.664;2023-10-19T12:04:50;9.38;;;6.32;;
63943;SDS011;50121;51.218;7.664;2023-10-19T12:07:36;8.38;;;5.85;;
63943;SDS011;50121;51.218;7.664;2023-10-19T12:10:11;7.43;;;5.60;;
63943;SDS011;50121;51.218;7.664;2023-10-19T12:12:41;9.43;;;6.10;;
63943;SDS011;50121;51.218;7.664;2023-10-19T12:15:17;6.95;;;6.20;;
63943;SDS011;50121;51.218;7.664;2023-10-19T12:17:45;7.50;;;6.80;;
63943;SDS011;50121;51.218;7.664;2023-10-19T12:20:16;7.00;;;6.35;;
63943;SDS011;50121;51.218;7.664;2023-10-19T12:22:48;7.90;;;5.67;;
63943;SDS011;50121;51.218;7.664;2023-10-19T12:25:20;6.53;;;5.72;;
63943;SDS011;50121;51.218;7.664;2023-10-19T12:27:58;7.70;;;6.10;;
63943;SDS011;50121;51.218;7.664;2023-10-19T12:30:31;7.68;;;5.80;;
63943;SDS011;50121;51.218;7.664;2023-10-19T12:33:05;8.27;;;5.78;;
63943;SDS011;50121;51.218;7.664;2023-10-19T12:35:40;6.40;;;4.80;;
63943;SDS011;50121;51.218;7.664;2023-10-19T12:38:26;10.05;;;6.30;;
63943;SDS011;50121;51.218;7.664;2023-10-19T12:40:56;9.60;;;5.53;;
63943;SDS011;50121;51.218;7.664;2023-10-19T12:43:26;12.32;;;5.57;;
63943;SDS011;50121;51.218;7.664;2023-10-19T12:45:58;14.63;;;13.35;;
63943;SDS011;50121;51.218;7.664;2023-10-19T12:48:27;7.28;;;5.32;;
63943;SDS011;50121;51.218;7.664;2023-10-19T12:51:04;10.55;;;6.05;;
63943;SDS011;50121;51.218;7.664;2023-10-19T12:53:35;10.30;;;5.20;;
63943;SDS011;50121;51.218;7.664;2023-10-19T12:56:06;5.20;;;4.72;;
63943;SDS011;50121;51.218;7.664;2023-10-19T12:58:37;8.75;;;4.88;;
63943;SDS011;50121;51.218;7.664;2023-10-19T13:01:06;6.88;;;4.75;;
63943;SDS011;50121;51.218;7.664;2023-10-19T13:03:38;7.72;;;4.72;;
63943;SDS011;50121;51.218;7.664;2023-10-19T13:06:09;7.45;;;5.40;;
63943;SDS011;50121;51.218;7.664;2023-10-19T13:08:39;7.55;;;4.80;;
63943;SDS011;50121;51.218;7.664;2023-10-19T13:11:11;6.55;;;4.30;;
63943;SDS011;50121;51.218;7.664;2023-10-19T13:13:45;15.13;;;5.28;;
63943;SDS011;50121;51.218;7.664;2023-10-19T13:16:14;9.48;;;4.55;;
63943;SDS011;50121;51.218;7.664;2023-10-19T13:18:45;7.85;;;4.85;;
63943;SDS011;50121;51.218;7.664;2023-10-19T13:21:14;7.65;;;4.22;;
63943;SDS011;50121;51.218;7.664;2023-10-19T13:23:50;7.20;;;4.55;;
63943;SDS011;50121;51.218;7.664;2023-10-19T13:26:19;8.13;;;4.72;;
63943;SDS011;50121;51.218;7.664;2023-10-19T13:28:47;9.60;;;4.78;;
63943;SDS011;50121;51.218;7.664;2023-10-19T13:31:17;6.65;;;4.65;;
63943;SDS011;50121;51.218;7.664;2023-10-19T13:33:47;7.68;;;5.30;;
63943;SDS011;50121;51.218;7.664;2023-10-19T13:36:16;9.32;;;5.10;;
63943;SDS011;50121;51.218;7.664;2023-10-19T13:38:44;6.65;;;4.65;;
63943;SDS011;50121;51.218;7.664;2023-10-19T13:41:16;8.90;;;4.70;;
63943;SDS011;50121;51.218;7.664;2023-10-19T13:43:46;8.18;;;4.80;;
63943;SDS011;50121;51.218;7.664;2023-10-19T13:46:22;11.80;;;7.05;;
63943;SDS011;50121;51.218;7.664;2023-10-19T13:48:51;10.45;;;5.10;;
63943;SDS011;50121;51.218;7.664;2023-10-19T13:51:21;8.30;;;4.93;;
63943;SDS011;50121;51.218;7.664;2023-10-19T13:53:49;5.25;;;4.70;;
63943;SDS011;50121;51.218;7.664;2023-10-19T13:56:17;6.90;;;5.15;;
63943;SDS011;50121;51.218;7.664;2023-10-19T13:58:47;5.18;;;4.10;;
63943;SDS011;50121;51.218;7.664;2023-10-19T14:01:17;9.18;;;4.70;;
63943;SDS011;50121;51.218;7.664;2023-10-19T14:03:46;6.32;;;4.15;;
63943;SDS011;50121;51.218;7.664;2023-10-19T14:06:16;9.55;;;5.32;;
63943;SDS011;50121;51.218;7.664;2023-10-19T14:08:45;6.72;;;4.63;;
63943;SDS011;50121;51.218;7.664;2023-10-19T14:11:16;8.88;;;5.15;;
63943;SDS011;50121;51.218;7.664;2023-10-19T14:13:44;7.72;;;4.20;;
63943;SDS011;50121;51.218;7.664;2023-10-19T14:16:17;8.10;;;4.57;;
63943;SDS011;50121;51.218;7.664;2023-10-19T14:18:56;7.03;;;4.55;;
63943;SDS011;50121;51.218;7.664;2023-10-19T14:21:24;7.50;;;4.22;;
63943;SDS011;50121;51.218;7.664;2023-10-19T14:23:55;8.15;;;4.28;;
63943;SDS011;50121;51.218;7.664;2023-10-19T14:26:26;7.55;;;4.70;;
63943;SDS011;50121;51.218;7.664;2023-10-19T14:28:55;8.57;;;5.30;;
63943;SDS011;50121;51.218;7.664;2023-10-19T14:31:23;6.68;;;4.80;;
63943;SDS011;50121;51.218;7.664;2023-10-19T14:33:54;9.07;;;5.35;;
63943;SDS011;50121;51.218;7.664;2023-10-19T14:36:21;13.52;;;6.03;;
63943;SDS011;50121;51.218;7.664;2023-10-19T14:38:49;7.22;;;4.65;;
63943;SDS011;50121;51.218;7.664;2023-10-19T14:41:19;10.40;;;5.40;;
63943;SDS011;50121;51.218;7.664;2023-10-19T14:43:49;6.82;;;4.40;;
63943;SDS011;50121;51.218;7.664;2023-10-19T14:46:23;8.73;;;5.05;;
63943;SDS011;50121;51.218;7.664;2023-10-19T14:48:55;9.27;;;5.10;;
63943;SDS011;50121;51.218;7.664;2023-10-19T14:51:25;7.88;;;4.70;;
63943;SDS011;50121;51.218;7.664;2023-10-19T14:53:55;10.00;;;5.65;;
63943;SDS011;50121;51.218;7.664;2023-10-19T14:56:24;8.18;;;4.85;;
63943;SDS011;50121;51.218;7.664;2023-10-19T14:58:53;7.10;;;4.97;;
63943;SDS011;50121;51.218;7.664;2023-10-19T15:03:56;8.32;;;5.57;;
63943;SDS011;50121;51.218;7.664;2023-10-19T15:06:24;10.57;;;5.63;;
63943;SDS011;50121;51.218;7.664;2023-10-19T15:08:54;11.63;;;5.85;;
63943;SDS011;50121;51.218;7.664;2023-10-19T15:11:24;9.32;;;5.82;;
63943;SDS011;50121;51.218;7.664;2023-10-19T15:13:52;7.18;;;5.20;;
63943;SDS011;50121;51.218;7.664;2023-10-19T15:16:22;8.52;;;5.65;;
63943;SDS011;50121;51.218;7.664;2023-10-19T15:18:51;9.00;;;5.85;;
63943;SDS011;50121;51.218;7.664;2023-10-19T15:21:19;7.38;;;5.60;;
63943;SDS011;50121;51.218;7.664;2023-10-19T15:23:49;8.38;;;5.85;;
63943;SDS011;50121;51.218;7.664;2023-10-19T15:26:21;8.88;;;6.03;;
63943;SDS011;50121;51.218;7.664;2023-10-19T15:28:51;10.13;;;5.97;;
63943;SDS011;50121;51.218;7.664;2023-10-19T15:31:20;8.23;;;5.97;;
63943;SDS011;50121;51.218;7.664;2023-10-19T15:33:53;8.63;;;5.93;;
63943;SDS011;50121;51.218;7.664;2023-10-19T15:36:22;10.68;;;5.70;;
63943;SDS011;50121;51.218;7.664;2023-10-19T15:38:51;7.63;;;5.55;;
63943;SDS011;50121;51.218;7.664;2023-10-19T15:41:21;8.05;;;5.97;;